createdAt,value
2022-09-17T00:01:23.276Z,1.60
2022-09-17T00:03:53.699Z,1.47
2022-09-17T00:06:24.525Z,1.80
2022-09-17T00:08:53.450Z,1.70
2022-09-17T00:11:23.081Z,1.70
2022-09-17T00:13:52.428Z,1.47
2022-09-17T00:16:28.338Z,1.37
2022-09-17T00:18:57.461Z,1.80
2022-09-17T00:21:27.684Z,1.40
2022-09-17T00:23:56.888Z,1.57
2022-09-17T00:26:25.593Z,1.40
2022-09-17T00:28:54.666Z,1.30
2022-09-17T00:31:23.649Z,1.63
2022-09-17T00:33:52.365Z,1.30
2022-09-17T00:36:21.276Z,1.40
2022-09-17T00:38:52.177Z,1.20
2022-09-17T00:41:21.306Z,1.50
2022-09-17T00:43:50.981Z,1.30
2022-09-17T00:46:33.227Z,1.40
2022-09-17T00:49:03.303Z,1.67
2022-09-17T00:51:35.291Z,1.10
2022-09-17T00:54:06.192Z,1.37
2022-09-17T00:56:35.740Z,1.40
2022-09-17T00:59:04.753Z,1.40
2022-09-17T01:01:33.490Z,1.40
2022-09-17T01:04:01.904Z,1.43
2022-09-17T01:06:34.509Z,1.50
2022-09-17T01:09:12.078Z,1.43
2022-09-17T01:11:47.504Z,1.40
2022-09-17T01:14:21.347Z,1.63
2022-09-17T01:16:55.503Z,1.20
2022-09-17T01:19:38.138Z,1.43
2022-09-17T01:22:09.076Z,1.40
2022-09-17T01:24:58.834Z,1.40
2022-09-17T01:27:45.938Z,1.27
2022-09-17T01:30:22.583Z,1.40
2022-09-17T01:32:55.734Z,1.40
2022-09-17T01:35:28.102Z,1.47
2022-09-17T01:38:01.864Z,1.30
2022-09-17T01:40:32.490Z,1.50
2022-09-17T01:43:06.368Z,1.30
2022-09-17T01:45:37.312Z,1.20
2022-09-17T01:48:12.616Z,1.20
2022-09-17T01:50:46.743Z,1.30
2022-09-17T01:53:17.270Z,1.40
2022-09-17T01:55:46.328Z,1.40
2022-09-17T01:58:16.264Z,1.10
2022-09-17T02:00:47.623Z,1.00
2022-09-17T02:03:19.384Z,1.47
2022-09-17T02:05:50.572Z,1.37
2022-09-17T02:08:20.575Z,1.50
2022-09-17T02:10:52.123Z,1.50
2022-09-17T02:13:22.968Z,1.10
2022-09-17T02:15:54.199Z,1.50
2022-09-17T02:18:26.614Z,1.67
2022-09-17T02:20:57.294Z,1.57
2022-09-17T02:23:29.453Z,1.60
2022-09-17T02:26:00.456Z,1.50
2022-09-17T02:28:32.961Z,1.20
2022-09-17T02:31:02.644Z,1.30
2022-09-17T02:33:35.007Z,1.30
2022-09-17T02:36:03.779Z,1.23
2022-09-17T02:38:32.478Z,1.40
2022-09-17T02:41:03.774Z,1.53
2022-09-17T02:43:38.087Z,1.30
2022-09-17T02:46:14.088Z,1.50
2022-09-17T02:48:51.779Z,1.47
2022-09-17T02:51:25.527Z,1.30
2022-09-17T02:53:58.746Z,1.30
2022-09-17T02:56:34.094Z,1.43
2022-09-17T02:59:06.362Z,1.10
2022-09-17T03:01:36.021Z,1.53
2022-09-17T03:04:07.929Z,1.10
2022-09-17T03:06:36.276Z,1.47
2022-09-17T03:09:04.923Z,1.33
2022-09-17T03:11:33.710Z,1.80
2022-09-17T03:14:02.117Z,1.70
2022-09-17T03:16:30.501Z,1.60
2022-09-17T03:18:58.912Z,1.50
2022-09-17T03:21:29.037Z,1.50
2022-09-17T03:23:57.385Z,1.30
2022-09-17T03:26:25.728Z,1.47
2022-09-17T03:28:56.180Z,1.20
2022-09-17T03:31:24.577Z,1.70
2022-09-17T03:33:55.396Z,1.27
2022-09-17T03:36:23.726Z,1.53
2022-09-17T03:38:55.509Z,1.37
2022-09-17T03:41:26.105Z,1.73
2022-09-17T03:43:57.050Z,1.53
2022-09-17T03:46:25.410Z,1.50
2022-09-17T03:48:53.813Z,1.33
2022-09-17T03:51:22.181Z,1.50
2022-09-17T03:53:50.917Z,2.10
2022-09-17T03:56:20.681Z,1.40
2022-09-17T03:58:49.071Z,1.40
2022-09-17T04:01:17.476Z,1.30
2022-09-17T04:03:46.291Z,1.20
2022-09-17T04:06:14.655Z,1.37
2022-09-17T04:08:43.643Z,1.13
2022-09-17T04:11:12.115Z,1.60
2022-09-17T04:13:41.857Z,1.33
2022-09-17T04:16:10.346Z,1.53
2022-09-17T04:18:38.818Z,1.40
2022-09-17T04:21:07.340Z,1.60
2022-09-17T04:23:35.674Z,1.40
2022-09-17T04:26:07.168Z,1.60
2022-09-17T04:28:38.589Z,1.57
2022-09-17T04:31:08.404Z,1.83
2022-09-17T04:33:37.565Z,1.63
2022-09-17T04:36:06.406Z,1.63
2022-09-17T04:38:34.799Z,1.40
2022-09-17T04:41:03.182Z,1.80
2022-09-17T04:43:31.522Z,1.90
2022-09-17T04:45:59.873Z,1.80
2022-09-17T04:48:29.675Z,1.70
2022-09-17T04:50:58.273Z,1.70
2022-09-17T04:53:26.675Z,1.90
2022-09-17T04:55:55.168Z,1.70
2022-09-17T04:58:23.572Z,1.47
2022-09-17T05:00:52.268Z,1.37
2022-09-17T05:03:20.636Z,1.90
2022-09-17T05:05:50.388Z,2.13
2022-09-17T05:08:18.761Z,1.80
2022-09-17T05:10:47.113Z,1.90
2022-09-17T05:13:15.527Z,1.97
2022-09-17T05:15:44.031Z,2.10
2022-09-17T05:18:15.596Z,1.90
2022-09-17T05:20:44.583Z,1.90
2022-09-17T05:23:14.386Z,1.93
2022-09-17T05:25:42.764Z,2.03
2022-09-17T05:28:11.143Z,2.20
2022-09-17T05:30:39.530Z,2.23
2022-09-17T05:33:08.577Z,1.80
2022-09-17T05:35:37.081Z,1.67
2022-09-17T05:38:06.401Z,1.80
2022-09-17T05:40:37.644Z,1.70
2022-09-17T05:43:06.903Z,1.80
2022-09-17T05:45:35.847Z,1.43
2022-09-17T05:48:04.886Z,2.00
2022-09-17T05:50:33.670Z,1.50
2022-09-17T05:53:05.839Z,1.47
2022-09-17T05:55:36.180Z,1.77
2022-09-17T05:58:11.113Z,1.40
2022-09-17T06:00:39.484Z,1.87
2022-09-17T06:03:07.872Z,1.57
2022-09-17T06:05:36.278Z,2.03
2022-09-17T06:08:05.601Z,1.43
2022-09-17T06:10:36.869Z,1.57
2022-09-17T06:13:06.767Z,1.50
2022-09-17T06:15:35.131Z,1.80
2022-09-17T06:18:03.502Z,1.40
2022-09-17T06:20:31.866Z,1.70
2022-09-17T06:23:00.246Z,1.47
2022-09-17T06:25:29.527Z,1.73
2022-09-17T06:27:57.900Z,1.70
2022-09-17T06:30:27.655Z,1.80
2022-09-17T06:32:56.300Z,2.03
2022-09-17T06:35:24.669Z,2.03
2022-09-17T06:37:53.084Z,1.80
2022-09-17T06:40:23.741Z,1.97
2022-09-17T06:42:52.176Z,1.60
2022-09-17T06:45:20.551Z,1.50
2022-09-17T06:47:50.296Z,1.60
2022-09-17T06:50:18.669Z,1.80
2022-09-17T06:52:50.256Z,1.90
2022-09-17T06:55:18.765Z,2.00
2022-09-17T06:57:47.366Z,1.90
2022-09-17T07:00:16.360Z,1.63
2022-09-17T07:02:44.714Z,1.43
2022-09-17T07:05:14.427Z,1.90
2022-09-17T07:07:42.756Z,1.67
2022-09-17T07:10:11.227Z,1.37
2022-09-17T07:12:45.454Z,2.17
2022-09-17T07:15:16.572Z,1.77
2022-09-17T07:17:45.194Z,1.90
2022-09-17T07:20:15.150Z,1.60
2022-09-17T07:22:43.793Z,1.60
2022-09-17T07:25:12.435Z,1.60
2022-09-17T07:27:40.767Z,2.17
2022-09-17T07:30:09.726Z,1.80
2022-09-17T07:32:38.066Z,1.43
2022-09-17T07:35:06.851Z,1.83
2022-09-17T07:37:36.635Z,1.60
2022-09-17T07:40:06.097Z,1.73
2022-09-17T07:42:34.621Z,2.13
2022-09-17T07:45:03.007Z,1.63
2022-09-17T07:47:31.446Z,1.93
2022-09-17T07:49:59.820Z,1.70
2022-09-17T07:52:29.152Z,1.50
2022-09-17T07:54:59.022Z,1.97
2022-09-17T07:57:27.388Z,1.83
2022-09-17T07:59:55.739Z,1.47
2022-09-17T08:02:24.621Z,1.70
2022-09-17T08:04:53.276Z,1.50
2022-09-17T08:07:21.666Z,1.37
2022-09-17T08:09:50.050Z,1.70
2022-09-17T08:12:19.855Z,1.83
2022-09-17T08:14:51.542Z,1.50
2022-09-17T08:17:19.894Z,1.60
2022-09-17T08:19:48.286Z,1.70
2022-09-17T08:22:16.861Z,1.60
2022-09-17T08:24:45.552Z,1.50
2022-09-17T08:27:13.973Z,2.00
2022-09-17T08:29:44.543Z,1.50
2022-09-17T08:32:12.887Z,1.70
2022-09-17T08:34:41.305Z,1.80
2022-09-17T08:37:12.312Z,1.63
2022-09-17T08:39:40.762Z,1.90
2022-09-17T08:42:12.088Z,1.80
2022-09-17T08:44:41.847Z,1.73
2022-09-17T08:47:15.018Z,1.47
2022-09-17T08:49:47.324Z,1.80
2022-09-17T08:52:42.948Z,1.50
2022-09-17T08:55:19.737Z,1.37
2022-09-17T08:57:51.373Z,1.43
2022-09-17T09:00:21.082Z,1.47
2022-09-17T09:03:02.378Z,1.30
2022-09-17T09:05:33.837Z,1.77
2022-09-17T09:08:05.631Z,1.60
2022-09-17T09:10:38.204Z,1.67
2022-09-17T09:13:06.860Z,1.70
2022-09-17T09:15:38.898Z,1.60
2022-09-17T09:18:13.968Z,1.80
2022-09-17T09:20:45.440Z,1.60
2022-09-17T09:23:19.424Z,1.70
2022-09-17T09:25:54.707Z,1.50
2022-09-17T09:28:51.207Z,1.87
2022-09-17T09:31:32.722Z,1.63
2022-09-17T09:34:03.285Z,1.87
2022-09-17T09:36:34.083Z,1.73
2022-09-17T09:39:04.297Z,1.80
2022-09-17T09:41:36.776Z,1.67
2022-09-17T09:44:06.112Z,1.50
2022-09-17T09:46:42.886Z,1.80
2022-09-17T09:49:17.324Z,2.03
2022-09-17T09:51:50.227Z,1.63
2022-09-17T09:54:24.224Z,2.00
2022-09-17T09:56:58.471Z,1.77
2022-09-17T09:59:27.099Z,1.97
2022-09-17T10:01:58.627Z,2.23
2022-09-17T10:04:33.512Z,2.00
2022-09-17T10:07:04.051Z,2.23
2022-09-17T10:09:34.388Z,1.70
2022-09-17T10:12:07.112Z,1.73
2022-09-17T10:14:36.137Z,1.40
2022-09-17T10:17:26.062Z,1.33
2022-09-17T10:20:10.608Z,1.60
2022-09-17T10:22:41.170Z,1.27
2022-09-17T10:25:26.629Z,1.20
2022-09-17T10:27:55.116Z,1.30
2022-09-17T10:30:24.399Z,1.27
2022-09-17T10:33:18.410Z,1.47
2022-09-17T10:35:56.602Z,1.10
2022-09-17T10:38:33.564Z,1.50
2022-09-17T10:41:18.716Z,1.23
2022-09-17T10:43:47.396Z,1.40
2022-09-17T10:46:17.653Z,1.40
2022-09-17T10:48:47.535Z,1.80
2022-09-17T10:51:22.253Z,1.70
2022-09-17T10:54:17.378Z,1.50
2022-09-17T10:56:48.450Z,1.60
2022-09-17T10:59:31.726Z,1.10
2022-09-17T11:02:06.261Z,1.27
2022-09-17T11:04:44.169Z,1.20
2022-09-17T11:07:27.441Z,1.30
2022-09-17T11:10:03.342Z,1.30
2022-09-17T11:12:43.053Z,1.17
2022-09-17T11:15:16.994Z,1.00
2022-09-17T11:17:53.834Z,1.27
2022-09-17T11:20:28.246Z,1.40
2022-09-17T11:23:00.826Z,1.20
2022-09-17T11:25:35.192Z,1.07
2022-09-17T11:28:08.710Z,1.20
2022-09-17T11:30:46.137Z,1.23
2022-09-17T11:33:33.122Z,1.10
2022-09-17T11:36:04.397Z,1.10
2022-09-17T11:38:37.444Z,1.33
2022-09-17T11:41:10.111Z,1.20
2022-09-17T11:43:41.392Z,1.23
2022-09-17T11:46:11.199Z,1.30
2022-09-17T11:48:41.320Z,1.23
2022-09-17T11:51:16.991Z,1.10
2022-09-17T11:53:49.085Z,1.40
2022-09-17T11:56:23.415Z,1.40
2022-09-17T11:58:53.893Z,1.20
2022-09-17T12:01:28.113Z,1.27
2022-09-17T12:03:59.916Z,1.80
2022-09-17T12:06:46.796Z,1.50
2022-09-17T12:09:17.783Z,1.13
2022-09-17T12:11:51.103Z,1.10
2022-09-17T12:14:22.804Z,1.57
2022-09-17T12:16:53.064Z,1.40
2022-09-17T12:19:23.673Z,1.43
2022-09-17T12:21:54.557Z,1.40
2022-09-17T12:24:24.495Z,1.57
2022-09-17T12:27:15.392Z,1.50
2022-09-17T12:30:08.340Z,1.43
2022-09-17T12:32:44.328Z,1.47
2022-09-17T12:35:20.468Z,1.30
2022-09-17T12:37:56.273Z,1.30
2022-09-17T12:40:28.993Z,1.60
2022-09-17T12:43:11.879Z,1.40
2022-09-17T12:45:50.756Z,1.07
2022-09-17T12:48:34.244Z,1.00
2022-09-17T12:51:09.920Z,1.00
2022-09-17T12:53:39.025Z,0.80
2022-09-17T12:56:11.744Z,0.90
2022-09-17T12:59:02.982Z,0.70
2022-09-17T13:01:38.076Z,0.50
2022-09-17T13:04:13.321Z,0.50
2022-09-17T13:07:05.926Z,0.90
2022-09-17T13:09:57.091Z,0.80
2022-09-17T13:12:34.836Z,0.90
2022-09-17T13:15:22.282Z,1.37
2022-09-17T13:18:12.834Z,0.90
2022-09-17T13:20:44.804Z,1.10
2022-09-17T13:23:14.088Z,0.80
2022-09-17T13:25:52.096Z,1.00
2022-09-17T13:28:20.596Z,1.07
2022-09-17T13:31:00.568Z,1.17
2022-09-17T13:33:47.899Z,1.10
2022-09-17T13:36:31.192Z,1.03
2022-09-17T13:38:59.814Z,1.20
2022-09-17T13:41:28.827Z,1.00
2022-09-17T13:43:57.722Z,1.00
2022-09-17T13:46:28.685Z,1.00
2022-09-17T13:48:59.368Z,1.10
2022-09-17T13:51:46.517Z,1.30
2022-09-17T13:54:15.447Z,1.20
2022-09-17T13:56:46.017Z,1.10
2022-09-17T13:59:16.949Z,1.43
2022-09-17T14:02:01.353Z,1.00
2022-09-17T14:04:36.881Z,0.90
2022-09-17T14:07:20.147Z,0.90
2022-09-17T14:09:55.714Z,0.73
2022-09-17T14:12:52.376Z,0.70
2022-09-17T14:15:39.388Z,0.70
2022-09-17T14:18:23.004Z,0.90
2022-09-17T14:20:53.639Z,0.50
2022-09-17T14:23:22.013Z,0.60
2022-09-17T14:25:53.075Z,0.67
2022-09-17T14:28:25.795Z,0.97
2022-09-17T14:30:54.432Z,0.77
2022-09-17T14:33:26.547Z,0.70
2022-09-17T14:35:58.451Z,0.70
2022-09-17T14:38:29.638Z,0.60
2022-09-17T14:41:01.762Z,0.73
2022-09-17T14:43:35.717Z,0.60
2022-09-17T14:46:05.816Z,0.70
2022-09-17T14:48:37.024Z,0.83
2022-09-17T14:51:29.557Z,0.80
2022-09-17T14:54:16.247Z,0.70
2022-09-17T14:56:48.370Z,0.80
2022-09-17T14:59:21.187Z,1.00
2022-09-17T15:01:50.237Z,0.80
2022-09-17T15:04:28.551Z,0.90
2022-09-17T15:07:08.479Z,0.90
2022-09-17T15:09:38.205Z,0.80
2022-09-17T15:12:08.155Z,0.90
2022-09-17T15:14:38.787Z,0.80
2022-09-17T15:17:09.012Z,0.90
2022-09-17T15:19:39.069Z,1.10
2022-09-17T15:22:08.830Z,1.10
2022-09-17T15:24:41.711Z,1.20
2022-09-17T15:27:13.473Z,1.10
2022-09-17T15:29:42.855Z,1.40
2022-09-17T15:32:13.810Z,1.00
2022-09-17T15:34:42.378Z,1.00
2022-09-17T15:37:19.096Z,1.30
2022-09-17T15:39:52.049Z,1.00
2022-09-17T15:42:22.076Z,0.90
2022-09-17T15:44:50.588Z,1.03
2022-09-17T15:47:52.975Z,0.90
2022-09-17T15:50:22.706Z,1.13
2022-09-17T15:52:51.969Z,0.90
2022-09-17T15:55:31.958Z,1.00
2022-09-17T15:58:00.923Z,0.80
2022-09-17T16:00:29.287Z,0.80
2022-09-17T16:02:57.922Z,1.00
2022-09-17T16:05:55.652Z,1.00
2022-09-17T16:08:25.854Z,1.00
2022-09-17T16:10:55.619Z,1.10
2022-09-17T16:13:28.462Z,1.03
2022-09-17T16:15:57.561Z,1.13
2022-09-17T16:18:27.624Z,1.10
2022-09-17T16:20:56.174Z,1.10
2022-09-17T16:23:24.873Z,1.20
2022-09-17T16:25:53.682Z,1.10
2022-09-17T16:28:23.450Z,1.17
2022-09-17T16:30:52.008Z,1.00
2022-09-17T16:33:20.553Z,1.00
2022-09-17T16:35:48.887Z,1.00
2022-09-17T16:38:17.410Z,0.80
2022-09-17T16:40:47.208Z,1.10
2022-09-17T16:43:16.294Z,1.10
2022-09-17T16:45:46.050Z,0.87
2022-09-17T16:48:14.420Z,0.80
2022-09-17T16:50:43.135Z,0.87
2022-09-17T16:53:11.581Z,0.80
2022-09-17T16:55:40.300Z,0.80
2022-09-17T16:58:08.723Z,0.80
2022-09-17T17:00:37.419Z,0.70
2022-09-17T17:03:07.487Z,0.87
2022-09-17T17:05:38.668Z,0.90
2022-09-17T17:08:07.415Z,0.80
2022-09-17T17:10:36.513Z,0.90
2022-09-17T17:13:04.978Z,0.90
2022-09-17T17:15:33.338Z,0.97
2022-09-17T17:18:01.723Z,0.93
2022-09-17T17:20:32.081Z,1.70
2022-09-17T17:23:00.555Z,2.10
2022-09-17T17:25:28.926Z,1.63
2022-09-17T17:27:57.332Z,1.73
2022-09-17T17:30:26.037Z,2.30
2022-09-17T17:32:54.672Z,2.80
2022-09-17T17:35:23.664Z,2.40
2022-09-17T17:37:53.401Z,2.40
2022-09-17T17:40:21.777Z,2.00
2022-09-17T17:42:53.322Z,2.10
2022-09-17T17:45:21.732Z,1.70
2022-09-17T17:47:50.425Z,1.70
2022-09-17T17:50:18.927Z,1.60
2022-09-17T17:52:48.708Z,1.80
2022-09-17T17:55:18.819Z,1.97
2022-09-17T17:57:47.267Z,1.30
2022-09-17T18:00:18.332Z,2.00
2022-09-17T18:02:48.920Z,1.43
2022-09-17T18:05:17.457Z,1.60
2022-09-17T18:07:49.655Z,1.70
2022-09-17T18:10:19.774Z,1.70
2022-09-17T18:12:50.647Z,1.80
2022-09-17T18:15:19.119Z,1.50
2022-09-17T18:17:50.018Z,1.60
2022-09-17T18:20:19.308Z,1.40
2022-09-17T18:22:48.390Z,1.70
2022-09-17T18:25:16.841Z,1.73
2022-09-17T18:27:47.167Z,1.53
2022-09-17T18:30:15.746Z,1.90
2022-09-17T18:32:44.104Z,1.73
2022-09-17T18:35:12.440Z,1.83
2022-09-17T18:37:40.798Z,1.90
2022-09-17T18:40:09.669Z,1.77
2022-09-17T18:42:38.086Z,1.77
2022-09-17T18:45:08.728Z,1.60
2022-09-17T18:47:37.101Z,1.70
2022-09-17T18:50:05.555Z,1.87
2022-09-17T18:52:33.920Z,1.80
2022-09-17T18:55:03.325Z,1.60
2022-09-17T18:57:31.741Z,1.70
2022-09-17T19:00:00.151Z,1.80
2022-09-17T19:02:29.902Z,1.70
2022-09-17T19:04:58.212Z,1.80
2022-09-17T19:07:26.581Z,2.13
2022-09-17T19:09:54.929Z,1.60
2022-09-17T19:12:23.314Z,2.00
2022-09-17T19:14:51.632Z,2.30
2022-09-17T19:17:20.004Z,1.93
2022-09-17T19:19:49.689Z,1.80
2022-09-17T19:22:18.684Z,1.90
2022-09-17T19:24:47.073Z,1.77
2022-09-17T19:27:15.440Z,2.10
2022-09-17T19:29:43.805Z,2.00
2022-09-17T19:32:12.353Z,2.10
2022-09-17T19:34:42.567Z,2.47
2022-09-17T19:37:12.264Z,2.90
2022-09-17T19:39:40.701Z,2.90
2022-09-17T19:42:09.190Z,2.57
2022-09-17T19:44:37.511Z,2.80
2022-09-17T19:47:06.102Z,2.60
2022-09-17T19:49:34.438Z,3.13
2022-09-17T19:52:03.010Z,4.83
2022-09-17T19:54:33.440Z,3.00
2022-09-17T19:57:01.848Z,2.80
2022-09-17T19:59:30.171Z,2.57
2022-09-17T20:01:58.586Z,2.43
2022-09-17T20:04:26.964Z,1.90
2022-09-17T20:06:55.368Z,2.47
2022-09-17T20:09:23.724Z,2.00
2022-09-17T20:11:53.638Z,1.97
2022-09-17T20:14:22.431Z,1.60
2022-09-17T20:16:50.769Z,1.63
2022-09-17T20:19:19.122Z,1.70
2022-09-17T20:21:47.450Z,1.40
2022-09-17T20:24:15.832Z,1.63
2022-09-17T20:26:44.138Z,1.30
2022-09-17T20:29:13.886Z,1.60
2022-09-17T20:31:42.266Z,1.70
2022-09-17T20:34:12.618Z,1.07
2022-09-17T20:36:40.948Z,1.50
2022-09-17T20:39:14.359Z,1.40
2022-09-17T20:41:45.072Z,1.50
2022-09-17T20:44:14.789Z,1.23
2022-09-17T20:46:43.159Z,1.20
2022-09-17T20:49:11.571Z,0.90
2022-09-17T20:51:40.119Z,0.80
2022-09-17T20:54:11.063Z,1.00
2022-09-17T20:56:41.922Z,0.90
2022-09-17T20:59:15.085Z,1.00
2022-09-17T21:01:45.728Z,0.90
2022-09-17T21:04:15.806Z,0.90
2022-09-17T21:06:44.915Z,0.80
2022-09-17T21:09:16.063Z,0.77
2022-09-17T21:11:44.981Z,0.90
2022-09-17T21:14:15.374Z,0.80
2022-09-17T21:16:45.279Z,0.80
2022-09-17T21:19:15.833Z,0.60
2022-09-17T21:21:44.210Z,0.80
2022-09-17T21:24:12.709Z,0.73
2022-09-17T21:26:41.084Z,0.83
2022-09-17T21:29:09.685Z,0.70
2022-09-17T21:31:38.425Z,0.80
2022-09-17T21:34:08.975Z,0.80
2022-09-17T21:36:38.326Z,0.80
2022-09-17T21:39:07.851Z,0.70
2022-09-17T21:41:41.463Z,1.03
2022-09-17T21:44:11.269Z,0.90
2022-09-17T21:46:40.125Z,1.20
2022-09-17T21:49:10.012Z,1.10
2022-09-17T21:51:38.991Z,1.00
2022-09-17T21:54:08.005Z,1.10
2022-09-17T21:56:36.447Z,1.03
2022-09-17T21:59:05.794Z,1.20
2022-09-17T22:01:38.705Z,1.30
2022-09-17T22:04:07.241Z,1.30
2022-09-17T22:06:37.061Z,1.40
2022-09-17T22:09:06.383Z,1.53
2022-09-17T22:11:36.694Z,1.60
2022-09-17T22:14:08.794Z,1.80
2022-09-17T22:16:38.305Z,1.40
2022-09-17T22:19:07.179Z,1.47
2022-09-17T22:21:37.675Z,1.63
2022-09-17T22:24:06.662Z,1.27
2022-09-17T22:26:36.210Z,1.30
2022-09-17T22:29:05.078Z,1.60
2022-09-17T22:31:33.564Z,1.40
2022-09-17T22:34:02.268Z,1.30
2022-09-17T22:36:30.682Z,1.03
2022-09-17T22:39:00.642Z,1.20
2022-09-17T22:41:30.126Z,1.50
2022-09-17T22:44:00.163Z,1.30
2022-09-17T22:46:29.781Z,1.03
2022-09-17T22:48:58.220Z,1.27
2022-09-17T22:51:27.605Z,1.10
2022-09-17T22:53:56.137Z,0.90
2022-09-17T22:56:27.027Z,0.97
2022-09-17T22:58:55.522Z,1.10
2022-09-17T23:01:25.191Z,0.90
2022-09-17T23:03:54.144Z,1.10
2022-09-17T23:06:23.791Z,0.90
2022-09-17T23:08:52.234Z,1.20
2022-09-17T23:11:21.816Z,1.03
2022-09-17T23:13:52.508Z,0.87
2022-09-17T23:16:21.653Z,1.30
2022-09-17T23:18:50.102Z,1.10
2022-09-17T23:21:19.427Z,0.90
2022-09-17T23:23:48.967Z,0.90
2022-09-17T23:26:18.343Z,1.10
2022-09-17T23:28:46.710Z,1.00
2022-09-17T23:31:17.347Z,1.00
2022-09-17T23:33:46.078Z,1.10
2022-09-17T23:36:15.467Z,1.20
2022-09-17T23:38:44.708Z,1.30
2022-09-17T23:41:14.713Z,0.90
2022-09-17T23:43:43.129Z,0.97
2022-09-17T23:46:11.872Z,0.80
2022-09-17T23:48:41.801Z,0.90
2022-09-17T23:51:10.652Z,0.97
2022-09-17T23:53:41.833Z,0.83
2022-09-17T23:56:13.057Z,1.00
2022-09-17T23:58:41.731Z,0.80
